sensor_id;sensor_type;location;lat;lon;timestamp;temperature;humidity
7588;DHT22;3835;48.850;8.938;2022-10-17T00:00:04;13.90;99.90
7588;DHT22;3835;48.850;8.938;2022-10-17T00:02:32;13.90;99.90
7588;DHT22;3835;48.850;8.938;2022-10-17T00:04:59;13.90;99.90
7588;DHT22;3835;48.850;8.938;2022-10-17T00:07:25;13.80;99.90
7588;DHT22;3835;48.850;8.938;2022-10-17T00:09:52;13.80;99.90
7588;DHT22;3835;48.850;8.938;2022-10-17T00:12:19;13.60;99.90
7588;DHT22;3835;48.850;8.938;2022-10-17T00:14:46;13.60;99.90
7588;DHT22;3835;48.850;8.938;2022-10-17T00:17:14;13.50;99.90
7588;DHT22;3835;48.850;8.938;2022-10-17T00:19:41;13.50;99.90
7588;DHT22;3835;48.850;8.938;2022-10-17T00:22:08;13.40;99.90
7588;DHT22;3835;48.850;8.938;2022-10-17T00:24:34;13.40;99.90
7588;DHT22;3835;48.850;8.938;2022-10-17T00:27:02;13.30;99.90
7588;DHT22;3835;48.850;8.938;2022-10-17T00:29:29;13.30;99.90
7588;DHT22;3835;48.850;8.938;2022-10-17T00:31:56;13.40;99.90
7588;DHT22;3835;48.850;8.938;2022-10-17T00:34:24;13.30;99.90
7588;DHT22;3835;48.850;8.938;2022-10-17T00:36:51;13.30;99.90
7588;DHT22;3835;48.850;8.938;2022-10-17T00:39:18;13.30;99.90
7588;DHT22;3835;48.850;8.938;2022-10-17T00:41:45;13.30;99.90
7588;DHT22;3835;48.850;8.938;2022-10-17T00:47:18;13.30;99.90
7588;DHT22;3835;48.850;8.938;2022-10-17T00:49:47;13.30;99.90
7588;DHT22;3835;48.850;8.938;2022-10-17T00:52:18;13.30;99.90
7588;DHT22;3835;48.850;8.938;2022-10-17T00:54:48;13.30;99.90
7588;DHT22;3835;48.850;8.938;2022-10-17T00:57:16;13.20;99.90
7588;DHT22;3835;48.850;8.938;2022-10-17T00:59:44;13.10;99.90
7588;DHT22;3835;48.850;8.938;2022-10-17T01:02:16;13.00;99.90
7588;DHT22;3835;48.850;8.938;2022-10-17T01:04:46;13.00;99.90
7588;DHT22;3835;48.850;8.938;2022-10-17T01:07:14;13.00;99.90
7588;DHT22;3835;48.850;8.938;2022-10-17T01:09:43;13.10;99.90
7588;DHT22;3835;48.850;8.938;2022-10-17T01:12:17;13.20;99.90
7588;DHT22;3835;48.850;8.938;2022-10-17T01:14:53;13.20;99.90
7588;DHT22;3835;48.850;8.938;2022-10-17T01:17:27;13.30;99.90
7588;DHT22;3835;48.850;8.938;2022-10-17T01:22:54;13.20;99.90
7588;DHT22;3835;48.850;8.938;2022-10-17T01:25:28;13.20;99.90
7588;DHT22;3835;48.850;8.938;2022-10-17T01:28:17;13.20;99.90
7588;DHT22;3835;48.850;8.938;2022-10-17T01:31:01;13.20;99.90
7588;DHT22;3835;48.850;8.938;2022-10-17T01:33:39;13.00;99.90
7588;DHT22;3835;48.850;8.938;2022-10-17T01:36:11;12.90;99.90
7588;DHT22;3835;48.850;8.938;2022-10-17T01:38:44;12.90;99.90
7588;DHT22;3835;48.850;8.938;2022-10-17T01:41:18;13.00;99.90
7588;DHT22;3835;48.850;8.938;2022-10-17T01:43:52;13.10;99.90
7588;DHT22;3835;48.850;8.938;2022-10-17T01:46:26;13.20;99.90
7588;DHT22;3835;48.850;8.938;2022-10-17T01:48:55;13.10;99.90
7588;DHT22;3835;48.850;8.938;2022-10-17T01:51:26;13.10;99.90
7588;DHT22;3835;48.850;8.938;2022-10-17T01:53:59;13.00;99.90
7588;DHT22;3835;48.850;8.938;2022-10-17T01:56:30;13.00;99.90
7588;DHT22;3835;48.850;8.938;2022-10-17T01:59:01;12.90;99.90
7588;DHT22;3835;48.850;8.938;2022-10-17T02:01:33;12.90;99.90
7588;DHT22;3835;48.850;8.938;2022-10-17T02:04:03;12.90;99.90
7588;DHT22;3835;48.850;8.938;2022-10-17T02:06:33;13.10;99.90
7588;DHT22;3835;48.850;8.938;2022-10-17T02:09:00;13.30;99.90
7588;DHT22;3835;48.850;8.938;2022-10-17T02:11:27;13.30;99.90
7588;DHT22;3835;48.850;8.938;2022-10-17T02:14:12;13.40;99.90
7588;DHT22;3835;48.850;8.938;2022-10-17T02:16:50;13.30;99.90
7588;DHT22;3835;48.850;8.938;2022-10-17T02:19:34;13.20;99.90
7588;DHT22;3835;48.850;8.938;2022-10-17T02:22:13;13.00;99.90
7588;DHT22;3835;48.850;8.938;2022-10-17T02:24:47;12.90;99.90
7588;DHT22;3835;48.850;8.938;2022-10-17T02:27:23;13.00;99.90
7588;DHT22;3835;48.850;8.938;2022-10-17T02:29:57;13.00;99.90
7588;DHT22;3835;48.850;8.938;2022-10-17T02:32:33;13.00;99.90
7588;DHT22;3835;48.850;8.938;2022-10-17T02:35:02;13.00;99.90
7588;DHT22;3835;48.850;8.938;2022-10-17T02:37:31;13.00;99.90
7588;DHT22;3835;48.850;8.938;2022-10-17T02:40:00;13.00;99.90
7588;DHT22;3835;48.850;8.938;2022-10-17T02:42:28;13.10;99.90
7588;DHT22;3835;48.850;8.938;2022-10-17T02:44:58;13.20;99.90
7588;DHT22;3835;48.850;8.938;2022-10-17T02:47:32;13.20;99.90
7588;DHT22;3835;48.850;8.938;2022-10-17T02:50:00;13.30;99.90
7588;DHT22;3835;48.850;8.938;2022-10-17T02:52:30;13.20;99.90
7588;DHT22;3835;48.850;8.938;2022-10-17T02:55:04;13.10;99.90
7588;DHT22;3835;48.850;8.938;2022-10-17T02:57:35;13.10;99.90
7588;DHT22;3835;48.850;8.938;2022-10-17T03:00:06;13.10;99.90
7588;DHT22;3835;48.850;8.938;2022-10-17T03:05:19;13.20;99.90
7588;DHT22;3835;48.850;8.938;2022-10-17T03:07:46;13.10;99.90
7588;DHT22;3835;48.850;8.938;2022-10-17T03:10:12;13.20;99.90
7588;DHT22;3835;48.850;8.938;2022-10-17T03:12:39;13.30;99.90
7588;DHT22;3835;48.850;8.938;2022-10-17T03:15:07;13.40;99.90
7588;DHT22;3835;48.850;8.938;2022-10-17T03:17:34;13.40;99.90
7588;DHT22;3835;48.850;8.938;2022-10-17T03:20:01;13.40;99.90
7588;DHT22;3835;48.850;8.938;2022-10-17T03:22:29;13.30;99.90
7588;DHT22;3835;48.850;8.938;2022-10-17T03:24:56;13.30;99.90
7588;DHT22;3835;48.850;8.938;2022-10-17T03:27:23;13.20;99.90
7588;DHT22;3835;48.850;8.938;2022-10-17T03:29:50;13.20;99.90
7588;DHT22;3835;48.850;8.938;2022-10-17T03:32:17;13.20;99.90
7588;DHT22;3835;48.850;8.938;2022-10-17T03:34:44;13.20;99.90
7588;DHT22;3835;48.850;8.938;2022-10-17T03:37:10;13.10;99.90
7588;DHT22;3835;48.850;8.938;2022-10-17T03:39:38;13.10;99.90
7588;DHT22;3835;48.850;8.938;2022-10-17T03:42:07;13.00;99.90
7588;DHT22;3835;48.850;8.938;2022-10-17T03:44:33;13.00;99.90
7588;DHT22;3835;48.850;8.938;2022-10-17T03:47:00;12.90;99.90
7588;DHT22;3835;48.850;8.938;2022-10-17T03:49:27;12.80;99.90
7588;DHT22;3835;48.850;8.938;2022-10-17T03:51:53;12.80;99.90
7588;DHT22;3835;48.850;8.938;2022-10-17T03:54:20;12.80;99.90
7588;DHT22;3835;48.850;8.938;2022-10-17T03:56:48;12.80;99.90
7588;DHT22;3835;48.850;8.938;2022-10-17T03:59:15;12.90;99.90
7588;DHT22;3835;48.850;8.938;2022-10-17T04:01:42;12.90;99.90
7588;DHT22;3835;48.850;8.938;2022-10-17T04:04:09;12.80;99.90
7588;DHT22;3835;48.850;8.938;2022-10-17T04:06:36;12.80;99.90
7588;DHT22;3835;48.850;8.938;2022-10-17T04:09:04;12.70;99.90
7588;DHT22;3835;48.850;8.938;2022-10-17T04:11:31;12.70;99.90
7588;DHT22;3835;48.850;8.938;2022-10-17T04:13:59;12.70;99.90
7588;DHT22;3835;48.850;8.938;2022-10-17T04:16:26;12.70;99.90
7588;DHT22;3835;48.850;8.938;2022-10-17T04:18:55;12.70;99.90
7588;DHT22;3835;48.850;8.938;2022-10-17T04:21:22;12.70;99.90
7588;DHT22;3835;48.850;8.938;2022-10-17T04:23:52;12.70;99.90
7588;DHT22;3835;48.850;8.938;2022-10-17T04:26:19;12.80;99.90
7588;DHT22;3835;48.850;8.938;2022-10-17T04:28:46;12.70;99.90
7588;DHT22;3835;48.850;8.938;2022-10-17T04:31:15;12.70;99.90
7588;DHT22;3835;48.850;8.938;2022-10-17T04:33:43;12.70;99.90
7588;DHT22;3835;48.850;8.938;2022-10-17T04:36:14;12.60;99.90
7588;DHT22;3835;48.850;8.938;2022-10-17T04:38:41;12.60;99.90
7588;DHT22;3835;48.850;8.938;2022-10-17T04:41:11;12.60;99.90
7588;DHT22;3835;48.850;8.938;2022-10-17T04:43:38;12.50;99.90
7588;DHT22;3835;48.850;8.938;2022-10-17T04:46:07;12.50;99.90
7588;DHT22;3835;48.850;8.938;2022-10-17T04:48:35;12.50;99.90
7588;DHT22;3835;48.850;8.938;2022-10-17T04:51:04;12.50;99.90
7588;DHT22;3835;48.850;8.938;2022-10-17T04:53:32;12.50;99.90
7588;DHT22;3835;48.850;8.938;2022-10-17T04:55:59;12.50;99.90
7588;DHT22;3835;48.850;8.938;2022-10-17T04:58:28;12.50;99.90
7588;DHT22;3835;48.850;8.938;2022-10-17T05:00:55;12.50;99.90
7588;DHT22;3835;48.850;8.938;2022-10-17T05:03:21;12.50;99.90
7588;DHT22;3835;48.850;8.938;2022-10-17T05:05:50;12.50;99.90
7588;DHT22;3835;48.850;8.938;2022-10-17T05:08:16;12.50;99.90
7588;DHT22;3835;48.850;8.938;2022-10-17T05:10:44;12.60;99.90
7588;DHT22;3835;48.850;8.938;2022-10-17T05:13:11;12.60;99.90
7588;DHT22;3835;48.850;8.938;2022-10-17T05:15:38;12.60;99.90
7588;DHT22;3835;48.850;8.938;2022-10-17T05:18:05;12.60;99.90
7588;DHT22;3835;48.850;8.938;2022-10-17T05:20:32;12.60;99.90
7588;DHT22;3835;48.850;8.938;2022-10-17T05:23:01;12.60;99.90
7588;DHT22;3835;48.850;8.938;2022-10-17T05:25:28;12.60;99.90
7588;DHT22;3835;48.850;8.938;2022-10-17T05:27:54;12.60;99.90
7588;DHT22;3835;48.850;8.938;2022-10-17T05:30:21;12.50;99.90
7588;DHT22;3835;48.850;8.938;2022-10-17T05:32:51;12.50;99.90
7588;DHT22;3835;48.850;8.938;2022-10-17T05:35:18;12.50;99.90
7588;DHT22;3835;48.850;8.938;2022-10-17T05:37:44;12.50;99.90
7588;DHT22;3835;48.850;8.938;2022-10-17T05:40:13;12.50;99.90
7588;DHT22;3835;48.850;8.938;2022-10-17T05:42:44;12.40;99.90
7588;DHT22;3835;48.850;8.938;2022-10-17T05:45:11;12.40;99.90
7588;DHT22;3835;48.850;8.938;2022-10-17T05:47:38;12.50;99.90
7588;DHT22;3835;48.850;8.938;2022-10-17T05:50:06;12.50;99.90
7588;DHT22;3835;48.850;8.938;2022-10-17T05:52:33;12.50;99.90
7588;DHT22;3835;48.850;8.938;2022-10-17T05:55:00;12.50;99.90
7588;DHT22;3835;48.850;8.938;2022-10-17T05:57:28;12.50;99.90
7588;DHT22;3835;48.850;8.938;2022-10-17T05:59:55;12.50;99.90
7588;DHT22;3835;48.850;8.938;2022-10-17T06:02:21;12.50;99.90
7588;DHT22;3835;48.850;8.938;2022-10-17T06:04:48;12.60;99.90
7588;DHT22;3835;48.850;8.938;2022-10-17T06:07:15;12.70;99.90
7588;DHT22;3835;48.850;8.938;2022-10-17T06:09:42;12.70;99.90
7588;DHT22;3835;48.850;8.938;2022-10-17T06:12:09;12.90;99.90
7588;DHT22;3835;48.850;8.938;2022-10-17T06:14:37;13.00;99.90
7588;DHT22;3835;48.850;8.938;2022-10-17T06:17:04;13.10;99.90
7588;DHT22;3835;48.850;8.938;2022-10-17T06:19:30;13.20;99.90
7588;DHT22;3835;48.850;8.938;2022-10-17T06:21:57;13.20;99.90
7588;DHT22;3835;48.850;8.938;2022-10-17T06:24:24;13.20;99.90
7588;DHT22;3835;48.850;8.938;2022-10-17T06:26:51;13.20;99.90
7588;DHT22;3835;48.850;8.938;2022-10-17T06:29:17;13.30;99.90
7588;DHT22;3835;48.850;8.938;2022-10-17T06:31:45;13.40;99.90
7588;DHT22;3835;48.850;8.938;2022-10-17T06:34:12;13.40;99.90
7588;DHT22;3835;48.850;8.938;2022-10-17T06:36:39;13.50;99.90
7588;DHT22;3835;48.850;8.938;2022-10-17T06:39:06;13.60;99.90
7588;DHT22;3835;48.850;8.938;2022-10-17T06:41:33;13.60;99.90
7588;DHT22;3835;48.850;8.938;2022-10-17T06:43:59;13.70;99.90
7588;DHT22;3835;48.850;8.938;2022-10-17T06:46:30;13.80;99.90
7588;DHT22;3835;48.850;8.938;2022-10-17T06:48:58;14.00;99.90
7588;DHT22;3835;48.850;8.938;2022-10-17T06:51:25;14.20;99.90
7588;DHT22;3835;48.850;8.938;2022-10-17T06:53:52;14.40;99.90
7588;DHT22;3835;48.850;8.938;2022-10-17T06:56:19;14.50;99.90
7588;DHT22;3835;48.850;8.938;2022-10-17T06:58:45;14.60;99.90
7588;DHT22;3835;48.850;8.938;2022-10-17T07:01:13;14.80;99.90
7588;DHT22;3835;48.850;8.938;2022-10-17T07:03:40;15.00;99.90
7588;DHT22;3835;48.850;8.938;2022-10-17T07:06:09;15.10;99.90
7588;DHT22;3835;48.850;8.938;2022-10-17T07:08:36;15.20;99.90
7588;DHT22;3835;48.850;8.938;2022-10-17T07:11:10;15.30;99.90
7588;DHT22;3835;48.850;8.938;2022-10-17T07:13:37;15.50;99.90
7588;DHT22;3835;48.850;8.938;2022-10-17T07:16:04;15.60;99.90
7588;DHT22;3835;48.850;8.938;2022-10-17T07:18:31;15.70;99.90
7588;DHT22;3835;48.850;8.938;2022-10-17T07:20:58;15.80;99.90
7588;DHT22;3835;48.850;8.938;2022-10-17T07:23:26;15.70;99.90
7588;DHT22;3835;48.850;8.938;2022-10-17T07:25:58;15.90;99.90
7588;DHT22;3835;48.850;8.938;2022-10-17T07:28:25;16.00;99.90
7588;DHT22;3835;48.850;8.938;2022-10-17T07:30:52;16.20;99.90
7588;DHT22;3835;48.850;8.938;2022-10-17T07:33:18;16.30;99.90
7588;DHT22;3835;48.850;8.938;2022-10-17T07:35:45;16.30;99.90
7588;DHT22;3835;48.850;8.938;2022-10-17T07:38:12;16.30;99.90
7588;DHT22;3835;48.850;8.938;2022-10-17T07:40:40;16.40;99.90
7588;DHT22;3835;48.850;8.938;2022-10-17T07:43:07;16.60;99.90
7588;DHT22;3835;48.850;8.938;2022-10-17T07:45:33;16.70;99.90
7588;DHT22;3835;48.850;8.938;2022-10-17T07:48:00;16.70;99.90
7588;DHT22;3835;48.850;8.938;2022-10-17T07:50:27;16.90;99.90
7588;DHT22;3835;48.850;8.938;2022-10-17T07:52:54;17.00;99.90
7588;DHT22;3835;48.850;8.938;2022-10-17T07:55:20;17.20;99.90
7588;DHT22;3835;48.850;8.938;2022-10-17T07:57:48;17.20;99.90
7588;DHT22;3835;48.850;8.938;2022-10-17T08:00:15;17.30;99.90
7588;DHT22;3835;48.850;8.938;2022-10-17T08:02:42;17.40;99.90
7588;DHT22;3835;48.850;8.938;2022-10-17T08:05:09;17.50;99.90
7588;DHT22;3835;48.850;8.938;2022-10-17T08:07:35;17.60;99.90
7588;DHT22;3835;48.850;8.938;2022-10-17T08:10:04;17.70;99.90
7588;DHT22;3835;48.850;8.938;2022-10-17T08:12:31;17.80;99.90
7588;DHT22;3835;48.850;8.938;2022-10-17T08:15:00;17.90;99.90
7588;DHT22;3835;48.850;8.938;2022-10-17T08:17:27;18.00;99.90
7588;DHT22;3835;48.850;8.938;2022-10-17T08:19:53;18.10;99.90
7588;DHT22;3835;48.850;8.938;2022-10-17T08:22:20;18.10;99.90
7588;DHT22;3835;48.850;8.938;2022-10-17T08:24:47;18.20;99.90
7588;DHT22;3835;48.850;8.938;2022-10-17T08:27:14;18.30;99.90
7588;DHT22;3835;48.850;8.938;2022-10-17T08:29:46;18.40;99.90
7588;DHT22;3835;48.850;8.938;2022-10-17T08:32:19;18.50;99.90
7588;DHT22;3835;48.850;8.938;2022-10-17T08:34:46;18.70;99.90
7588;DHT22;3835;48.850;8.938;2022-10-17T08:37:13;18.90;99.90
7588;DHT22;3835;48.850;8.938;2022-10-17T08:39:40;18.90;99.90
7588;DHT22;3835;48.850;8.938;2022-10-17T08:42:36;19.00;99.90
7588;DHT22;3835;48.850;8.938;2022-10-17T08:45:17;19.00;99.90
7588;DHT22;3835;48.850;8.938;2022-10-17T08:47:50;19.00;99.90
7588;DHT22;3835;48.850;8.938;2022-10-17T08:50:24;19.10;99.90
7588;DHT22;3835;48.850;8.938;2022-10-17T08:52:57;19.20;99.90
7588;DHT22;3835;48.850;8.938;2022-10-17T08:55:31;19.40;99.90
7588;DHT22;3835;48.850;8.938;2022-10-17T08:57:58;19.40;99.90
7588;DHT22;3835;48.850;8.938;2022-10-17T09:00:27;19.40;99.90
7588;DHT22;3835;48.850;8.938;2022-10-17T09:03:15;19.50;99.90
7588;DHT22;3835;48.850;8.938;2022-10-17T09:05:50;19.60;99.90
7588;DHT22;3835;48.850;8.938;2022-10-17T09:08:27;19.60;99.90
7588;DHT22;3835;48.850;8.938;2022-10-17T09:10:57;19.70;99.90
7588;DHT22;3835;48.850;8.938;2022-10-17T09:13:43;19.80;99.90
7588;DHT22;3835;48.850;8.938;2022-10-17T09:16:27;19.90;99.90
7588;DHT22;3835;48.850;8.938;2022-10-17T09:19:02;20.00;99.90
7588;DHT22;3835;48.850;8.938;2022-10-17T09:21:38;20.00;99.90
7588;DHT22;3835;48.850;8.938;2022-10-17T09:24:14;20.00;99.90
7588;DHT22;3835;48.850;8.938;2022-10-17T09:26:43;20.10;99.90
7588;DHT22;3835;48.850;8.938;2022-10-17T09:29:17;20.20;99.90
7588;DHT22;3835;48.850;8.938;2022-10-17T09:31:47;20.30;99.90
7588;DHT22;3835;48.850;8.938;2022-10-17T09:34:18;20.40;99.90
7588;DHT22;3835;48.850;8.938;2022-10-17T09:36:44;20.50;99.90
7588;DHT22;3835;48.850;8.938;2022-10-17T09:39:15;20.60;99.90
7588;DHT22;3835;48.850;8.938;2022-10-17T09:41:46;20.70;99.90
7588;DHT22;3835;48.850;8.938;2022-10-17T09:44:17;20.70;99.90
7588;DHT22;3835;48.850;8.938;2022-10-17T09:47:03;20.80;99.90
7588;DHT22;3835;48.850;8.938;2022-10-17T09:49:34;20.90;99.90
7588;DHT22;3835;48.850;8.938;2022-10-17T09:52:04;21.00;99.90
7588;DHT22;3835;48.850;8.938;2022-10-17T09:54:39;21.10;99.90
7588;DHT22;3835;48.850;8.938;2022-10-17T09:57:09;21.20;99.90
7588;DHT22;3835;48.850;8.938;2022-10-17T09:59:37;21.30;99.90
7588;DHT22;3835;48.850;8.938;2022-10-17T10:02:15;21.40;99.90
7588;DHT22;3835;48.850;8.938;2022-10-17T10:04:55;21.40;99.90
7588;DHT22;3835;48.850;8.938;2022-10-17T10:07:22;21.60;99.90
7588;DHT22;3835;48.850;8.938;2022-10-17T10:09:49;21.50;99.90
7588;DHT22;3835;48.850;8.938;2022-10-17T10:12:18;21.50;99.90
7588;DHT22;3835;48.850;8.938;2022-10-17T10:14:45;21.50;99.90
7588;DHT22;3835;48.850;8.938;2022-10-17T10:17:36;21.40;99.90
7588;DHT22;3835;48.850;8.938;2022-10-17T10:20:28;21.50;99.90
7588;DHT22;3835;48.850;8.938;2022-10-17T10:23:16;21.60;99.90
7588;DHT22;3835;48.850;8.938;2022-10-17T10:25:53;21.70;99.90
7588;DHT22;3835;48.850;8.938;2022-10-17T10:28:24;21.80;99.90
7588;DHT22;3835;48.850;8.938;2022-10-17T10:30:52;21.80;99.90
7588;DHT22;3835;48.850;8.938;2022-10-17T10:33:21;21.80;99.90
7588;DHT22;3835;48.850;8.938;2022-10-17T10:35:55;21.90;99.90
7588;DHT22;3835;48.850;8.938;2022-10-17T10:38:22;22.00;99.90
7588;DHT22;3835;48.850;8.938;2022-10-17T10:40:51;22.00;99.90
7588;DHT22;3835;48.850;8.938;2022-10-17T10:43:23;22.00;99.90
7588;DHT22;3835;48.850;8.938;2022-10-17T10:45:51;22.00;99.90
7588;DHT22;3835;48.850;8.938;2022-10-17T10:48:20;22.10;99.90
7588;DHT22;3835;48.850;8.938;2022-10-17T10:50:49;22.10;99.90
7588;DHT22;3835;48.850;8.938;2022-10-17T10:53:28;22.10;99.90
7588;DHT22;3835;48.850;8.938;2022-10-17T10:55:58;22.20;99.90
7588;DHT22;3835;48.850;8.938;2022-10-17T10:58:33;22.20;99.90
7588;DHT22;3835;48.850;8.938;2022-10-17T11:01:05;22.30;99.90
7588;DHT22;3835;48.850;8.938;2022-10-17T11:03:40;22.40;99.90
7588;DHT22;3835;48.850;8.938;2022-10-17T11:06:12;22.50;99.90
7588;DHT22;3835;48.850;8.938;2022-10-17T11:08:47;22.60;99.90
7588;DHT22;3835;48.850;8.938;2022-10-17T11:11:22;22.50;99.90
7588;DHT22;3835;48.850;8.938;2022-10-17T11:13:59;22.60;99.90
7588;DHT22;3835;48.850;8.938;2022-10-17T11:16:32;22.60;99.90
7588;DHT22;3835;48.850;8.938;2022-10-17T11:19:08;22.60;99.90
7588;DHT22;3835;48.850;8.938;2022-10-17T11:21:43;22.70;99.90
7588;DHT22;3835;48.850;8.938;2022-10-17T11:24:17;22.70;99.90
7588;DHT22;3835;48.850;8.938;2022-10-17T11:26:51;22.70;99.90
7588;DHT22;3835;48.850;8.938;2022-10-17T11:29:28;22.70;99.90
7588;DHT22;3835;48.850;8.938;2022-10-17T11:31:56;22.80;99.90
7588;DHT22;3835;48.850;8.938;2022-10-17T11:34:26;22.90;99.90
7588;DHT22;3835;48.850;8.938;2022-10-17T11:36:58;22.90;99.90
7588;DHT22;3835;48.850;8.938;2022-10-17T11:39:30;23.00;99.90
7588;DHT22;3835;48.850;8.938;2022-10-17T11:42:01;22.90;99.90
7588;DHT22;3835;48.850;8.938;2022-10-17T11:44:33;22.90;99.90
7588;DHT22;3835;48.850;8.938;2022-10-17T11:47:04;22.80;99.90
7588;DHT22;3835;48.850;8.938;2022-10-17T11:49:34;22.80;99.90
7588;DHT22;3835;48.850;8.938;2022-10-17T11:52:12;22.80;99.90
7588;DHT22;3835;48.850;8.938;2022-10-17T11:54:49;22.80;99.90
7588;DHT22;3835;48.850;8.938;2022-10-17T11:57:30;22.80;99.90
7588;DHT22;3835;48.850;8.938;2022-10-17T12:00:15;22.80;99.90
7588;DHT22;3835;48.850;8.938;2022-10-17T12:02:47;22.80;99.90
7588;DHT22;3835;48.850;8.938;2022-10-17T12:05:22;22.70;99.90
7588;DHT22;3835;48.850;8.938;2022-10-17T12:07:56;22.80;99.90
7588;DHT22;3835;48.850;8.938;2022-10-17T12:10:38;22.80;99.90
7588;DHT22;3835;48.850;8.938;2022-10-17T12:13:51;22.80;99.90
7588;DHT22;3835;48.850;8.938;2022-10-17T12:16:49;22.70;99.90
7588;DHT22;3835;48.850;8.938;2022-10-17T12:19:27;22.50;99.90
7588;DHT22;3835;48.850;8.938;2022-10-17T12:22:05;22.40;99.90
7588;DHT22;3835;48.850;8.938;2022-10-17T12:24:38;22.40;99.90
7588;DHT22;3835;48.850;8.938;2022-10-17T12:27:41;22.30;99.90
7588;DHT22;3835;48.850;8.938;2022-10-17T12:30:27;22.40;99.90
7588;DHT22;3835;48.850;8.938;2022-10-17T12:33:01;22.40;99.90
7588;DHT22;3835;48.850;8.938;2022-10-17T12:35:29;22.50;99.90
7588;DHT22;3835;48.850;8.938;2022-10-17T12:38:27;22.50;99.90
7588;DHT22;3835;48.850;8.938;2022-10-17T12:41:02;22.50;99.90
7588;DHT22;3835;48.850;8.938;2022-10-17T12:43:55;22.50;99.90
7588;DHT22;3835;48.850;8.938;2022-10-17T12:46:54;22.40;99.90
7588;DHT22;3835;48.850;8.938;2022-10-17T12:49:41;22.50;99.90
7588;DHT22;3835;48.850;8.938;2022-10-17T12:52:21;22.50;99.90
7588;DHT22;3835;48.850;8.938;2022-10-17T12:57:40;22.50;99.90
7588;DHT22;3835;48.850;8.938;2022-10-17T13:00:16;22.30;99.90
7588;DHT22;3835;48.850;8.938;2022-10-17T13:02:44;22.30;99.90
7588;DHT22;3835;48.850;8.938;2022-10-17T13:05:15;22.30;99.90
7588;DHT22;3835;48.850;8.938;2022-10-17T13:07:44;22.40;99.90
7588;DHT22;3835;48.850;8.938;2022-10-17T13:10:23;22.30;99.90
7588;DHT22;3835;48.850;8.938;2022-10-17T13:12:55;22.30;99.90
7588;DHT22;3835;48.850;8.938;2022-10-17T13:15:27;22.30;99.90
7588;DHT22;3835;48.850;8.938;2022-10-17T13:17:56;22.40;99.90
7588;DHT22;3835;48.850;8.938;2022-10-17T13:20:24;22.40;99.90
7588;DHT22;3835;48.850;8.938;2022-10-17T13:22:53;22.40;99.90
7588;DHT22;3835;48.850;8.938;2022-10-17T13:25:21;22.40;99.90
7588;DHT22;3835;48.850;8.938;2022-10-17T13:27:49;22.40;99.90
7588;DHT22;3835;48.850;8.938;2022-10-17T13:30:24;22.40;99.90
7588;DHT22;3835;48.850;8.938;2022-10-17T13:32:53;22.30;99.90
7588;DHT22;3835;48.850;8.938;2022-10-17T13:35:26;22.30;99.90
7588;DHT22;3835;48.850;8.938;2022-10-17T13:37:54;22.30;99.90
7588;DHT22;3835;48.850;8.938;2022-10-17T13:40:23;22.30;99.90
7588;DHT22;3835;48.850;8.938;2022-10-17T13:42:51;22.20;99.90
7588;DHT22;3835;48.850;8.938;2022-10-17T13:45:25;22.30;99.90
7588;DHT22;3835;48.850;8.938;2022-10-17T13:47:54;22.30;99.90
7588;DHT22;3835;48.850;8.938;2022-10-17T13:50:26;22.40;99.90
7588;DHT22;3835;48.850;8.938;2022-10-17T13:53:11;22.30;99.90
7588;DHT22;3835;48.850;8.938;2022-10-17T13:55:52;22.20;99.90
7588;DHT22;3835;48.850;8.938;2022-10-17T13:58:19;22.10;99.90
7588;DHT22;3835;48.850;8.938;2022-10-17T14:00:47;22.00;99.90
7588;DHT22;3835;48.850;8.938;2022-10-17T14:03:16;21.90;99.90
7588;DHT22;3835;48.850;8.938;2022-10-17T14:06:10;21.90;99.90
7588;DHT22;3835;48.850;8.938;2022-10-17T14:08:38;21.80;99.90
7588;DHT22;3835;48.850;8.938;2022-10-17T14:11:21;21.80;99.90
7588;DHT22;3835;48.850;8.938;2022-10-17T14:13:49;21.80;99.90
7588;DHT22;3835;48.850;8.938;2022-10-17T14:16:17;21.80;99.90
7588;DHT22;3835;48.850;8.938;2022-10-17T14:18:47;21.90;99.90
7588;DHT22;3835;48.850;8.938;2022-10-17T14:21:19;21.90;99.90
7588;DHT22;3835;48.850;8.938;2022-10-17T14:23:46;22.00;99.90
7588;DHT22;3835;48.850;8.938;2022-10-17T14:26:15;22.00;99.90
7588;DHT22;3835;48.850;8.938;2022-10-17T14:28:44;22.10;99.90
7588;DHT22;3835;48.850;8.938;2022-10-17T14:31:21;22.20;99.90
7588;DHT22;3835;48.850;8.938;2022-10-17T14:33:52;22.20;99.90
7588;DHT22;3835;48.850;8.938;2022-10-17T14:36:28;22.20;99.90
7588;DHT22;3835;48.850;8.938;2022-10-17T14:38:56;22.30;99.90
7588;DHT22;3835;48.850;8.938;2022-10-17T14:41:25;22.30;99.90
7588;DHT22;3835;48.850;8.938;2022-10-17T14:43:56;22.30;99.90
7588;DHT22;3835;48.850;8.938;2022-10-17T14:46:23;22.40;99.90
7588;DHT22;3835;48.850;8.938;2022-10-17T14:49:01;22.40;99.90
7588;DHT22;3835;48.850;8.938;2022-10-17T14:51:28;22.30;99.90
7588;DHT22;3835;48.850;8.938;2022-10-17T14:54:00;22.30;99.90
7588;DHT22;3835;48.850;8.938;2022-10-17T14:56:34;22.30;99.90
7588;DHT22;3835;48.850;8.938;2022-10-17T14:59:01;22.20;99.90
7588;DHT22;3835;48.850;8.938;2022-10-17T15:01:30;22.10;99.90
7588;DHT22;3835;48.850;8.938;2022-10-17T15:03:59;22.10;99.90
7588;DHT22;3835;48.850;8.938;2022-10-17T15:06:27;22.00;99.90
7588;DHT22;3835;48.850;8.938;2022-10-17T15:08:54;22.00;99.90
7588;DHT22;3835;48.850;8.938;2022-10-17T15:11:21;22.00;99.90
7588;DHT22;3835;48.850;8.938;2022-10-17T15:13:48;21.90;99.90
7588;DHT22;3835;48.850;8.938;2022-10-17T15:16:17;21.90;99.90
7588;DHT22;3835;48.850;8.938;2022-10-17T15:18:44;21.90;99.90
7588;DHT22;3835;48.850;8.938;2022-10-17T15:21:14;21.90;99.90
7588;DHT22;3835;48.850;8.938;2022-10-17T15:23:44;21.90;99.90
7588;DHT22;3835;48.850;8.938;2022-10-17T15:26:13;21.80;99.90
7588;DHT22;3835;48.850;8.938;2022-10-17T15:28:41;21.90;99.90
7588;DHT22;3835;48.850;8.938;2022-10-17T15:31:10;21.90;99.90
7588;DHT22;3835;48.850;8.938;2022-10-17T15:33:37;21.80;99.90
7588;DHT22;3835;48.850;8.938;2022-10-17T15:36:12;21.80;99.90
7588;DHT22;3835;48.850;8.938;2022-10-17T15:38:43;21.70;99.90
7588;DHT22;3835;48.850;8.938;2022-10-17T15:41:10;21.60;99.90
7588;DHT22;3835;48.850;8.938;2022-10-17T15:43:37;21.60;99.90
7588;DHT22;3835;48.850;8.938;2022-10-17T15:46:09;21.50;99.90
7588;DHT22;3835;48.850;8.938;2022-10-17T15:48:37;21.30;99.90
7588;DHT22;3835;48.850;8.938;2022-10-17T15:51:04;21.10;99.90
7588;DHT22;3835;48.850;8.938;2022-10-17T15:53:31;21.00;99.90
7588;DHT22;3835;48.850;8.938;2022-10-17T15:55:59;20.90;99.90
7588;DHT22;3835;48.850;8.938;2022-10-17T15:58:27;20.80;99.90
7588;DHT22;3835;48.850;8.938;2022-10-17T16:00:56;20.60;99.90
7588;DHT22;3835;48.850;8.938;2022-10-17T16:03:23;20.50;99.90
7588;DHT22;3835;48.850;8.938;2022-10-17T16:05:50;20.40;99.90
7588;DHT22;3835;48.850;8.938;2022-10-17T16:08:17;20.30;99.90
7588;DHT22;3835;48.850;8.938;2022-10-17T16:10:43;20.20;99.90
7588;DHT22;3835;48.850;8.938;2022-10-17T16:13:15;20.00;99.90
7588;DHT22;3835;48.850;8.938;2022-10-17T16:15:43;19.80;99.90
7588;DHT22;3835;48.850;8.938;2022-10-17T16:18:09;19.70;99.90
7588;DHT22;3835;48.850;8.938;2022-10-17T16:20:37;19.70;99.90
7588;DHT22;3835;48.850;8.938;2022-10-17T16:23:04;19.60;99.90
7588;DHT22;3835;48.850;8.938;2022-10-17T16:25:33;19.40;99.90
7588;DHT22;3835;48.850;8.938;2022-10-17T16:28:00;19.30;99.90
7588;DHT22;3835;48.850;8.938;2022-10-17T16:30:29;19.10;99.90
7588;DHT22;3835;48.850;8.938;2022-10-17T16:32:56;18.90;99.90
7588;DHT22;3835;48.850;8.938;2022-10-17T16:35:25;18.80;99.90